createdAt,value
2022-10-05T03:48:20.723Z,99.90
2022-10-05T03:51:07.090Z,99.90
2022-10-05T03:53:49.552Z,99.90
2022-10-05T03:56:34.285Z,99.90
2022-10-05T03:59:20.766Z,99.90
2022-10-05T04:02:01.344Z,99.90
2022-10-05T04:04:54.657Z,99.90
2022-10-05T04:07:46.707Z,99.90
2022-10-05T04:10:20.327Z,99.90
2022-10-05T04:12:50.458Z,99.90
2022-10-05T04:15:29.410Z,99.90
2022-10-05T04:18:01.850Z,99.90
2022-10-05T04:20:37.402Z,99.90
2022-10-05T04:23:19.233Z,99.90
2022-10-05T04:25:56.845Z,99.90
2022-10-05T04:28:31.771Z,99.90
2022-10-05T04:31:03.065Z,99.90
2022-10-05T04:33:31.477Z,99.90
2022-10-05T04:36:16.285Z,99.90
2022-10-05T04:38:56.924Z,99.90
2022-10-05T04:41:50.198Z,99.90
2022-10-05T04:44:22.989Z,99.90
2022-10-05T04:47:11.368Z,99.90
2022-10-05T04:50:08.807Z,99.90
2022-10-05T04:53:02.394Z,99.90
2022-10-05T04:55:46.774Z,99.90
2022-10-05T04:58:28.610Z,99.90
2022-10-05T05:01:18.278Z,99.90
2022-10-05T05:03:51.015Z,99.90
2022-10-05T05:06:42.165Z,99.90
2022-10-05T05:09:39.943Z,99.90
2022-10-05T05:12:49.677Z,99.90
2022-10-05T05:15:47.023Z,99.90
2022-10-05T05:18:31.551Z,99.90
2022-10-05T05:21:02.180Z,99.90
2022-10-05T05:23:53.557Z,99.90
2022-10-05T05:26:23.228Z,99.90
2022-10-05T05:29:11.813Z,99.90
2022-10-05T05:32:04.721Z,99.90
2022-10-05T05:34:40.278Z,99.90
2022-10-05T05:37:12.928Z,99.90
2022-10-05T05:39:55.608Z,99.90
2022-10-05T05:43:05.352Z,99.90
2022-10-05T05:45:41.848Z,99.90
2022-10-05T05:48:38.454Z,99.90
2022-10-05T05:51:15.638Z,99.90
2022-10-05T05:53:45.862Z,99.90
2022-10-05T05:56:20.546Z,99.90
2022-10-05T05:58:56.246Z,99.90
2022-10-05T06:01:40.722Z,99.90
2022-10-05T06:04:35.499Z,99.90
2022-10-05T06:07:04.984Z,99.90
2022-10-05T06:09:37.360Z,99.90
2022-10-05T06:12:16.513Z,99.90
2022-10-05T06:14:49.716Z,99.90
2022-10-05T06:17:23.941Z,99.90
2022-10-05T06:19:54.662Z,99.90
2022-10-05T06:22:40.957Z,99.90
2022-10-05T06:25:13.719Z,99.90
2022-10-05T06:28:02.094Z,99.90
2022-10-05T06:30:49.429Z,99.90
2022-10-05T06:33:24.514Z,99.90
2022-10-05T06:35:59.761Z,99.90
2022-10-05T06:38:29.159Z,99.90
2022-10-05T06:41:23.934Z,99.90
2022-10-05T06:43:53.562Z,99.90
2022-10-05T06:46:35.879Z,99.90
2022-10-05T06:49:17.250Z,99.90
2022-10-05T06:52:01.436Z,99.90
2022-10-05T06:54:49.218Z,99.90
2022-10-05T06:57:31.046Z,99.90
2022-10-05T07:00:02.656Z,99.90
2022-10-05T07:02:54.738Z,99.90
2022-10-05T07:05:56.742Z,99.90
2022-10-05T07:08:33.885Z,99.90
2022-10-05T07:11:00.523Z,99.90
2022-10-05T07:13:39.202Z,99.90
2022-10-05T07:16:37.034Z,99.90
2022-10-05T07:19:10.285Z,99.90
2022-10-05T07:24:48.302Z,99.90
2022-10-05T07:27:27.865Z,99.90
2022-10-05T07:30:06.965Z,99.90
2022-10-05T07:32:45.543Z,99.90
2022-10-05T07:36:08.594Z,99.90
2022-10-05T07:38:46.772Z,99.90
2022-10-05T07:41:36.385Z,99.90
2022-10-05T07:44:18.587Z,99.90
2022-10-05T07:47:03.809Z,99.90
2022-10-05T07:49:48.749Z,99.90
2022-10-05T07:52:34.652Z,99.90
2022-10-05T07:55:21.523Z,99.90
2022-10-05T07:58:25.337Z,99.90
2022-10-05T08:01:19.130Z,99.90
2022-10-05T08:03:45.822Z,99.90
2022-10-05T08:06:29.099Z,99.90
2022-10-05T08:09:18.644Z,99.90
2022-10-05T08:12:20.772Z,99.90
2022-10-05T08:14:55.985Z,99.90
2022-10-05T08:17:47.518Z,99.90
2022-10-05T08:20:17.360Z,99.90
2022-10-05T08:22:49.482Z,99.90
2022-10-05T08:25:26.652Z,99.90
2022-10-05T08:28:02.213Z,99.90
2022-10-05T08:30:35.567Z,99.90
2022-10-05T08:33:02.170Z,99.90
2022-10-05T08:35:39.401Z,99.90
2022-10-05T08:38:28.756Z,99.90
2022-10-05T08:41:13.762Z,99.90
2022-10-05T08:44:11.318Z,99.90
2022-10-05T08:46:44.145Z,99.90
2022-10-05T08:49:16.279Z,99.90
2022-10-05T08:51:55.355Z,99.90
2022-10-05T08:54:41.037Z,99.90
2022-10-05T08:57:32.505Z,99.90
2022-10-05T09:00:16.721Z,99.90
2022-10-05T09:03:11.513Z,99.90
2022-10-05T09:06:16.841Z,99.90
2022-10-05T09:09:20.502Z,99.90
2022-10-05T09:12:08.124Z,99.90
2022-10-05T09:15:20.585Z,99.90
2022-10-05T09:17:58.834Z,99.90
2022-10-05T09:20:46.616Z,99.90
2022-10-05T09:23:36.026Z,99.90
2022-10-05T09:26:28.505Z,99.90
2022-10-05T09:28:57.994Z,99.90
2022-10-05T09:31:46.322Z,99.90
2022-10-05T09:34:41.741Z,99.90
2022-10-05T09:37:26.447Z,99.90
2022-10-05T09:40:39.686Z,99.90
2022-10-05T09:43:37.210Z,99.90
2022-10-05T09:46:42.092Z,99.90
2022-10-05T09:49:35.325Z,99.90
2022-10-05T09:52:34.265Z,99.90
2022-10-05T09:55:19.707Z,99.90
2022-10-05T09:58:20.307Z,99.90
2022-10-05T10:01:33.041Z,99.90
2022-10-05T10:04:40.454Z,99.90
2022-10-05T10:07:36.521Z,99.90
2022-10-05T10:10:37.337Z,99.90
2022-10-05T10:13:19.637Z,99.90
2022-10-05T10:16:16.744Z,99.90
2022-10-05T10:18:55.366Z,99.90
2022-10-05T10:21:48.767Z,99.10
2022-10-05T10:24:43.256Z,93.70
2022-10-05T10:27:20.285Z,90.00
2022-10-05T10:30:10.866Z,86.30
2022-10-05T10:33:22.318Z,85.90
2022-10-05T10:35:54.848Z,81.20
2022-10-05T10:38:34.202Z,78.40
2022-10-05T10:41:22.054Z,77.00
2022-10-05T10:44:33.689Z,74.90
2022-10-05T10:47:25.459Z,73.00
2022-10-05T10:50:13.934Z,72.90
2022-10-05T10:53:09.882Z,71.50
2022-10-05T10:56:08.636Z,70.70
2022-10-05T10:58:50.058Z,69.20
2022-10-05T11:01:31.898Z,67.40
2022-10-05T11:04:23.512Z,63.40
2022-10-05T11:07:14.877Z,65.00
2022-10-05T11:10:00.779Z,67.20
2022-10-05T11:12:36.147Z,71.00
2022-10-05T11:15:21.597Z,68.50
2022-10-05T11:18:01.626Z,69.40
2022-10-05T11:20:59.049Z,71.50
2022-10-05T11:23:47.162Z,73.50
2022-10-05T11:26:41.627Z,76.40
2022-10-05T11:29:33.218Z,77.10
2022-10-05T11:32:32.761Z,79.00
2022-10-05T11:35:15.913Z,80.20
2022-10-05T11:37:54.885Z,78.10
2022-10-05T11:40:59.723Z,76.00
2022-10-05T11:43:37.476Z,75.60
2022-10-05T11:46:09.785Z,75.50
2022-10-05T11:48:45.558Z,77.10
2022-10-05T11:51:29.596Z,78.80
2022-10-05T11:54:18.005Z,79.40
2022-10-05T11:57:15.776Z,80.80
2022-10-05T11:59:51.220Z,86.40
2022-10-05T12:02:43.731Z,90.10
2022-10-05T12:05:21.213Z,88.10
2022-10-05T12:08:03.810Z,89.20
2022-10-05T12:10:36.510Z,89.10
2022-10-05T12:13:31.158Z,90.20
2022-10-05T12:16:10.960Z,90.40
2022-10-05T12:18:44.460Z,91.20
2022-10-05T12:21:39.341Z,90.90
2022-10-05T12:24:09.140Z,92.30
2022-10-05T12:26:41.825Z,92.50
2022-10-05T12:29:27.755Z,91.40
2022-10-05T12:32:03.149Z,92.80
2022-10-05T12:34:39.175Z,91.60
2022-10-05T12:37:33.585Z,91.40
2022-10-05T12:40:16.594Z,91.80
2022-10-05T12:43:08.469Z,92.00
2022-10-05T12:45:43.450Z,92.80
2022-10-05T12:48:10.285Z,93.40
2022-10-05T12:50:49.219Z,93.50
2022-10-05T12:53:19.019Z,92.60
2022-10-05T12:56:08.473Z,93.00
2022-10-05T12:58:38.441Z,92.20
2022-10-05T13:01:27.014Z,92.10
2022-10-05T13:04:28.877Z,91.90
2022-10-05T13:07:13.699Z,91.20
2022-10-05T13:09:42.130Z,91.00
2022-10-05T13:12:30.184Z,90.40
2022-10-05T13:15:04.562Z,89.00
2022-10-05T13:17:46.238Z,87.20
2022-10-05T13:20:40.194Z,87.30
2022-10-05T13:23:25.850Z,88.20
2022-10-05T13:25:52.441Z,87.80
2022-10-05T13:28:35.846Z,87.80
2022-10-05T13:31:34.769Z,87.60
2022-10-05T13:34:17.798Z,89.50
2022-10-05T13:36:55.527Z,88.70
2022-10-05T13:40:00.850Z,90.20
2022-10-05T13:42:37.664Z,90.50
2022-10-05T13:45:19.668Z,90.60
2022-10-05T13:48:18.146Z,90.50
2022-10-05T13:51:05.281Z,88.60
2022-10-05T13:53:44.107Z,87.80
2022-10-05T13:56:20.925Z,86.70
2022-10-05T13:58:50.282Z,87.20
2022-10-05T14:01:25.286Z,86.60
2022-10-05T14:04:16.131Z,84.00
2022-10-05T14:06:43.586Z,81.60
2022-10-05T14:09:21.970Z,80.20
2022-10-05T14:12:20.010Z,79.60
2022-10-05T14:14:55.618Z,78.50
2022-10-05T14:17:42.501Z,80.20
2022-10-05T14:20:36.677Z,80.20
2022-10-05T14:23:24.445Z,79.10
2022-10-05T14:25:54.726Z,78.30
2022-10-05T14:28:34.222Z,78.70
2022-10-05T14:31:08.206Z,79.70
2022-10-05T14:33:36.189Z,80.20
2022-10-05T14:36:06.229Z,80.90
2022-10-05T14:38:55.780Z,79.50
2022-10-05T14:41:27.199Z,79.20
2022-10-05T14:44:11.142Z,78.30
2022-10-05T14:46:39.443Z,78.10
2022-10-05T14:49:36.087Z,78.50
2022-10-05T14:52:28.252Z,78.30
2022-10-05T14:55:17.910Z,78.10
2022-10-05T14:58:02.229Z,77.00
2022-10-05T15:00:38.634Z,78.80
2022-10-05T15:03:31.974Z,78.90
2022-10-05T15:06:01.533Z,79.90
2022-10-05T15:08:58.126Z,78.50
2022-10-05T15:11:49.910Z,79.30
2022-10-05T15:14:24.366Z,80.20
2022-10-05T15:16:56.011Z,79.00
2022-10-05T15:19:40.167Z,79.40
2022-10-05T15:22:28.495Z,80.10
2022-10-05T15:25:09.621Z,79.50
2022-10-05T15:27:55.231Z,80.10
2022-10-05T15:30:22.259Z,79.10
2022-10-05T15:32:55.439Z,80.60
2022-10-05T15:35:30.886Z,82.00
2022-10-05T15:38:13.301Z,83.80
2022-10-05T15:40:42.431Z,81.70
2022-10-05T15:43:16.249Z,82.90
2022-10-05T15:45:53.732Z,80.90
2022-10-05T15:48:52.491Z,84.20
2022-10-05T15:51:41.738Z,84.70
2022-10-05T15:54:42.444Z,83.20
2022-10-05T15:57:20.986Z,85.00
2022-10-05T16:00:14.100Z,86.60
2022-10-05T16:02:58.244Z,86.50
2022-10-05T16:06:09.177Z,88.10
2022-10-05T16:08:50.607Z,90.50
2022-10-05T16:11:49.154Z,91.70
2022-10-05T16:14:38.723Z,92.10
2022-10-05T16:17:05.415Z,92.20
2022-10-05T16:20:03.043Z,93.60
2022-10-05T16:23:03.157Z,95.00
2022-10-05T16:26:09.080Z,95.20
2022-10-05T16:28:58.101Z,96.60
2022-10-05T16:31:37.507Z,97.90
2022-10-05T16:34:19.206Z,98.30
2022-10-05T16:36:56.316Z,98.90
2022-10-05T16:39:56.279Z,99.60
2022-10-05T16:43:01.106Z,99.90
2022-10-05T16:45:45.405Z,99.90
2022-10-05T16:48:28.777Z,99.90
2022-10-05T16:51:19.295Z,99.90
2022-10-05T16:54:18.299Z,99.90
2022-10-05T16:57:09.128Z,99.90
2022-10-05T17:00:08.865Z,99.90
2022-10-05T17:03:15.017Z,99.90
2022-10-05T17:05:56.653Z,99.90
2022-10-05T17:08:32.458Z,99.90
2022-10-05T17:11:16.010Z,99.90
2022-10-05T17:14:11.656Z,99.90
2022-10-05T17:16:50.333Z,99.90
2022-10-05T17:19:53.409Z,99.90
2022-10-05T17:22:28.975Z,99.90
2022-10-05T17:25:24.252Z,99.90
2022-10-05T17:27:53.089Z,99.90
2022-10-05T17:30:35.921Z,99.90
2022-10-05T17:33:27.317Z,99.90
2022-10-05T17:36:03.181Z,99.90
2022-10-05T17:38:34.098Z,99.90
2022-10-05T17:41:00.819Z,99.90
2022-10-05T17:43:30.707Z,99.90
2022-10-05T17:46:00.618Z,99.90
2022-10-05T17:48:54.172Z,99.90
2022-10-05T17:51:48.259Z,99.90
2022-10-05T17:54:37.844Z,99.90
2022-10-05T17:57:04.572Z,99.90
2022-10-05T17:59:45.725Z,99.90
2022-10-05T18:02:23.528Z,99.90
2022-10-05T18:04:51.344Z,99.90
2022-10-05T18:07:20.530Z,99.90
2022-10-05T18:09:54.218Z,99.90
2022-10-05T18:12:40.278Z,99.90
2022-10-05T18:15:06.955Z,99.90
2022-10-05T18:17:59.638Z,99.90
2022-10-05T18:20:30.086Z,99.90
2022-10-05T18:23:02.921Z,99.90
2022-10-05T18:25:40.282Z,99.90
2022-10-05T18:28:29.712Z,99.90
2022-10-05T18:31:15.603Z,99.90
2022-10-05T18:34:24.078Z,99.90
2022-10-05T18:36:58.612Z,99.90
2022-10-05T18:39:49.033Z,99.90
2022-10-05T18:42:49.965Z,99.90
2022-10-05T18:46:02.844Z,99.90
2022-10-05T18:48:50.661Z,99.90
2022-10-05T18:51:35.850Z,99.90
2022-10-05T18:54:23.215Z,99.90
2022-10-05T18:56:51.486Z,99.90
2022-10-05T18:59:26.935Z,99.90
2022-10-05T19:02:13.859Z,99.90
2022-10-05T19:05:18.931Z,99.90
2022-10-05T19:08:20.834Z,99.90
2022-10-05T19:10:56.071Z,99.90
2022-10-05T19:13:51.001Z,99.90
2022-10-05T19:16:35.707Z,99.90
2022-10-05T19:19:08.149Z,99.90
2022-10-05T19:21:51.258Z,99.90
2022-10-05T19:24:26.862Z,99.90
2022-10-05T19:27:40.101Z,99.90
2022-10-05T19:30:20.404Z,99.90
2022-10-05T19:32:55.174Z,99.90
2022-10-05T19:35:33.321Z,99.90
2022-10-05T19:38:14.442Z,99.90
2022-10-05T19:41:08.238Z,99.90
2022-10-05T19:44:09.948Z,99.90
2022-10-05T19:47:00.438Z,99.90
2022-10-05T19:49:55.263Z,99.90
2022-10-05T19:52:26.450Z,99.90
2022-10-05T19:55:22.383Z,99.90
2022-10-05T19:57:52.014Z,99.90
2022-10-05T20:00:34.543Z,99.90
2022-10-05T20:03:19.661Z,99.90
2022-10-05T20:05:46.865Z,99.90
2022-10-05T20:08:19.070Z,99.90
2022-10-05T20:11:21.482Z,99.90
2022-10-05T20:14:10.150Z,99.90
2022-10-05T20:16:55.439Z,99.90
2022-10-05T20:19:49.496Z,99.90
2022-10-05T20:22:46.482Z,99.90
2022-10-05T20:25:19.238Z,99.90
2022-10-05T20:27:50.513Z,99.90
2022-10-05T20:30:22.373Z,99.90
2022-10-05T20:32:49.939Z,99.90
2022-10-05T20:35:18.573Z,99.90
2022-10-05T20:37:45.286Z,99.90
2022-10-05T20:40:12.279Z,99.90
2022-10-05T20:42:39.073Z,99.90
2022-10-05T20:45:06.390Z,99.90
2022-10-05T20:47:33.716Z,99.90
2022-10-05T20:50:04.911Z,99.90
2022-10-05T20:52:31.758Z,99.90
2022-10-05T20:54:58.920Z,99.90
2022-10-05T20:57:26.581Z,99.90
2022-10-05T20:59:53.690Z,99.90
2022-10-05T21:02:20.530Z,99.90
2022-10-05T21:04:47.890Z,99.90
2022-10-05T21:07:21.058Z,99.90
2022-10-05T21:09:47.834Z,99.90
2022-10-05T21:12:16.330Z,99.90
2022-10-05T21:14:43.136Z,99.90
2022-10-05T21:17:11.860Z,99.90
2022-10-05T21:19:39.339Z,99.90
2022-10-05T21:22:07.845Z,99.90
2022-10-05T21:24:38.915Z,99.90
2022-10-05T21:27:06.664Z,99.90
2022-10-05T21:29:34.348Z,99.90
2022-10-05T21:32:01.568Z,99.90
2022-10-05T21:34:28.691Z,99.90
2022-10-05T21:36:55.556Z,99.90
2022-10-05T21:39:22.352Z,99.90
2022-10-05T21:41:49.851Z,99.90
2022-10-05T21:44:16.832Z,99.90
2022-10-05T21:46:43.681Z,99.90
2022-10-05T21:49:10.390Z,99.90
2022-10-05T21:51:37.977Z,99.90
2022-10-05T21:54:24.973Z,99.90
2022-10-05T21:56:54.745Z,99.90
2022-10-05T21:59:26.674Z,99.90
2022-10-05T22:01:53.973Z,99.90
2022-10-05T22:04:20.695Z,99.90
2022-10-05T22:06:48.230Z,99.90
2022-10-05T22:09:14.947Z,99.90
2022-10-05T22:11:41.634Z,99.90
2022-10-05T22:14:08.356Z,99.90
2022-10-05T22:16:38.478Z,99.90
2022-10-05T22:19:10.654Z,99.90
2022-10-05T22:21:41.424Z,99.90
2022-10-05T22:24:09.938Z,99.90
2022-10-05T22:26:36.757Z,99.90
2022-10-05T22:29:03.995Z,99.90
2022-10-05T22:31:30.785Z,99.90
2022-10-05T22:33:57.566Z,99.90
2022-10-05T22:36:24.521Z,99.90
2022-10-05T22:38:51.229Z,99.90
2022-10-05T22:41:18.452Z,99.90
2022-10-05T22:43:48.689Z,99.90
2022-10-05T22:46:15.508Z,99.90
2022-10-05T22:48:42.360Z,99.90
2022-10-05T22:51:09.289Z,99.90
2022-10-05T22:53:36.040Z,99.90
2022-10-05T22:56:11.273Z,99.90
2022-10-05T22:58:39.159Z,99.90
